Weather History for Sallisaw, OK

Change the Weather History Date:

Sunday, December 30, 2012

  Actual Average Record
Temperature  
Mean Temperature 31 °F -  
Max Temperature 41 °F 47 °F 80 °F (1951)
Min Temperature 21 °F 29 °F -4 °F (1983)
Degree Days  
Heating Degree Days 34    
Moisture  
Dew Point 24 °F    
Average Humidity 75    
Maximum Humidity 93    
Minimum Humidity 57    
Precipitation  
Precipitation 0.00 in - - ()
Sea Level Pressure  
Sea Level Pressure 30.39 in    
Wind  
Wind Speed 4 mph (East)    
Max Wind Speed 9 mph    
Max Gust Speed -    
Visibility 10 miles    
Events      
Averages and records for this station are not official NWS values.
T = Trace of Precipitation, MM = Missing Value Source: NWS Daily Summary

Daily Weather History Graph

Daily Weather History Graph

Search for Another Location

Airport:

Trip Planner

Search our weather history database for the weather conditions in past years. The results will help you decide how hot, cold, wet, or windy it might be!

Date:

Astronomy

Dec. 30, 2012 Rise Set
Actual Time 7:28 AM CST 5:16 PM CST
Civil Twilight 6:59 AM CST 5:44 PM CST
Nautical Twilight 6:27 AM CST 6:16 PM CST
Astronomical Twilight 5:56 AM CST 6:47 PM CST
Moon 7:42 PM CST (12/30) 8:42 AM CST (12/30)
Length of Visible Light 10h 44m
Length of Day
9h 48m
Waning Gibbous, 95% of the Moon is Illuminated
Dec 30
Waning Gibbous
Jan 4
Last Quarter
Jan 11
New
Jan 18
First Quarter
Jan 26
Full

Hourly Weather History & Observations

Time (CST) Temp. Windchill Dew Point Humidity Pressure Visibility Wind Dir Wind Speed Gust Speed Precip Events Conditions
12:15 AM 21.2 °F - 19.4 °F 93% 30.45 in 10.0 mi Calm Calm - N/A   Clear
12:35 AM 23.0 °F 18.4 °F 19.4 °F 86% 30.44 in 10.0 mi NE 3.5 mph - N/A   Clear
12:55 AM 23.0 °F 18.4 °F 19.4 °F 86% 30.44 in 10.0 mi ENE 3.5 mph - N/A   Clear
1:15 AM 21.2 °F 16.4 °F 19.4 °F 93% 30.44 in 10.0 mi ENE 3.5 mph - N/A   Clear
1:35 AM 23.0 °F 17.0 °F 19.4 °F 86% 30.43 in 10.0 mi ENE 4.6 mph - N/A   Clear
1:55 AM 21.2 °F - 17.6 °F 86% 30.44 in 10.0 mi Calm Calm - N/A   Clear
2:15 AM 23.0 °F - 19.4 °F 86% 30.45 in 10.0 mi Calm Calm - N/A   Clear
2:35 AM 23.0 °F 17.0 °F 19.4 °F 86% 30.46 in 10.0 mi NE 4.6 mph - N/A   Clear
2:55 AM 23.0 °F 17.0 °F 19.4 °F 86% 30.46 in 10.0 mi NE 4.6 mph - N/A   Clear
3:15 AM 23.0 °F 18.4 °F 19.4 °F 86% 30.47 in 10.0 mi ENE 3.5 mph - N/A   Clear
3:35 AM 23.0 °F 18.4 °F 19.4 °F 86% 30.47 in 10.0 mi ENE 3.5 mph - N/A   Clear
3:55 AM 23.0 °F 15.8 °F 19.4 °F 86% 30.46 in 10.0 mi ENE 5.8 mph - N/A   Clear
4:15 AM 23.0 °F - 19.4 °F 86% 30.46 in 10.0 mi Calm Calm - N/A   Clear
4:35 AM 21.2 °F 14.9 °F 19.4 °F 93% 30.45 in 10.0 mi NE 4.6 mph - N/A   Clear
4:55 AM 23.0 °F 15.8 °F 19.4 °F 86% 30.45 in 10.0 mi NE 5.8 mph - N/A   Clear
5:15 AM 23.0 °F 17.0 °F 19.4 °F 86% 30.44 in 10.0 mi ENE 4.6 mph - N/A   Clear
5:35 AM 23.0 °F 18.4 °F 19.4 °F 86% 30.45 in 10.0 mi ENE 3.5 mph - N/A   Clear
5:55 AM 23.0 °F 17.0 °F 19.4 °F 86% 30.45 in 10.0 mi NE 4.6 mph - N/A   Clear
6:15 AM 23.0 °F 17.0 °F 19.4 °F 86% 30.45 in 10.0 mi ENE 4.6 mph - N/A   Clear
6:35 AM 23.0 °F 17.0 °F 19.4 °F 86% 30.45 in 10.0 mi ENE 4.6 mph - N/A   Clear
6:55 AM 23.0 °F 17.0 °F 19.4 °F 86% 30.46 in 10.0 mi NE 4.6 mph - N/A   Clear
7:15 AM 23.0 °F 15.8 °F 19.4 °F 86% 30.45 in 10.0 mi ENE 5.8 mph - N/A   Clear
7:35 AM 23.0 °F 15.8 °F 19.4 °F 86% 30.45 in 10.0 mi ENE 5.8 mph - N/A   Clear
7:55 AM 23.0 °F 14.7 °F 19.4 °F 86% 30.45 in 10.0 mi ENE 6.9 mph - N/A   Clear
8:15 AM 23.0 °F 17.0 °F 19.4 °F 86% 30.45 in 10.0 mi ENE 4.6 mph - N/A   Clear
8:55 AM 26.6 °F 22.6 °F 21.2 °F 80% 30.48 in 10.0 mi NE 3.5 mph - N/A   Clear
9:15 AM 26.6 °F 21.2 °F 21.2 °F 80% 30.47 in 10.0 mi ENE 4.6 mph - N/A   Clear
9:55 AM 30.2 °F 23.4 °F 23.0 °F 75% 30.47 in 10.0 mi East 6.9 mph - N/A   Clear
10:35 AM 32.0 °F 26.4 °F 26.6 °F 80% 30.46 in 10.0 mi East 5.8 mph - N/A   Clear
10:55 AM 32.0 °F 25.6 °F 26.6 °F 80% 30.46 in 10.0 mi East 6.9 mph - N/A   Clear
11:15 AM 33.8 °F - 26.6 °F 75% 30.46 in 10.0 mi Calm Calm - N/A   Clear
11:35 AM 35.6 °F 32.8 °F 26.6 °F 70% 30.44 in 10.0 mi SE 3.5 mph - N/A   Clear
11:55 AM 35.6 °F 31.7 °F 26.6 °F 70% 30.43 in 10.0 mi SE 4.6 mph - N/A   Clear
12:15 PM 35.6 °F 31.7 °F 26.6 °F 70% 30.42 in 10.0 mi SE 4.6 mph - N/A   Clear
12:35 PM 37.4 °F 34.9 °F 26.6 °F 65% 30.42 in 10.0 mi East 3.5 mph - N/A   Clear
12:55 PM 37.4 °F 33.8 °F 24.8 °F 60% 30.41 in 10.0 mi SE 4.6 mph - N/A   Clear
1:15 PM 37.4 °F 33.8 °F 26.6 °F 65% 30.39 in 10.0 mi SE 4.6 mph - N/A   Clear
1:35 PM 37.4 °F 33.8 °F 26.6 °F 65% 30.38 in 10.0 mi ESE 4.6 mph - N/A   Clear
1:55 PM 37.4 °F 33.8 °F 26.6 °F 65% 30.38 in 10.0 mi SE 4.6 mph - N/A   Clear
2:15 PM 39.2 °F 35.0 °F 26.6 °F 61% 30.37 in 10.0 mi SE 5.8 mph - N/A   Clear
2:35 PM 41.0 °F 37.1 °F 26.6 °F 57% 30.37 in 10.0 mi SE 5.8 mph - N/A   Clear
2:55 PM 41.0 °F 36.4 °F 26.6 °F 57% 30.35 in 10.0 mi SE 6.9 mph - N/A   Clear
3:15 PM 41.0 °F 36.4 °F 26.6 °F 57% 30.35 in 10.0 mi SE 6.9 mph - N/A   Clear
3:35 PM 41.0 °F 38.0 °F 26.6 °F 57% 30.35 in 10.0 mi ESE 4.6 mph - N/A   Clear
3:55 PM 41.0 °F 37.1 °F 26.6 °F 57% 30.35 in 10.0 mi ESE 5.8 mph - N/A   Clear
4:15 PM 39.2 °F 35.0 °F 26.6 °F 61% 30.34 in 10.0 mi ESE 5.8 mph - N/A   Clear
4:35 PM 39.2 °F 35.0 °F 28.4 °F 65% 30.34 in 10.0 mi East 5.8 mph - N/A   Clear
4:55 PM 37.4 °F 32.8 °F 28.4 °F 70% 30.33 in 10.0 mi East 5.8 mph - N/A   Clear
5:15 PM 37.4 °F 32.8 °F 28.4 °F 70% 30.32 in 10.0 mi East 5.8 mph - N/A   Clear
5:35 PM 37.4 °F 32.1 °F 28.4 °F 70% 30.31 in 10.0 mi East 6.9 mph - N/A   Clear
5:55 PM 37.4 °F 32.1 °F 28.4 °F 70% 30.31 in 10.0 mi East 6.9 mph - N/A   Clear
6:15 PM 37.4 °F 33.8 °F 26.6 °F 65% 30.31 in 10.0 mi East 4.6 mph - N/A   Clear
6:35 PM 37.4 °F 32.8 °F 26.6 °F 65% 30.33 in 10.0 mi East 5.8 mph - N/A   Clear
6:55 PM 37.4 °F 32.1 °F 26.6 °F 65% 30.31 in 10.0 mi East 6.9 mph - N/A   Clear
7:15 PM 35.6 °F 29.9 °F 26.6 °F 70% 30.30 in 10.0 mi East 6.9 mph - N/A   Clear
7:35 PM 35.6 °F 30.7 °F 26.6 °F 70% 30.29 in 10.0 mi East 5.8 mph - N/A   Clear
7:55 PM 35.6 °F 29.9 °F 26.6 °F 70% 30.29 in 10.0 mi East 6.9 mph - N/A   Clear
8:15 PM 35.6 °F 30.7 °F 26.6 °F 70% 30.28 in 10.0 mi East 5.8 mph - N/A   Clear
8:35 PM 35.6 °F 29.9 °F 26.6 °F 70% 30.29 in 10.0 mi East 6.9 mph - N/A   Clear
8:55 PM 35.6 °F 29.2 °F 26.6 °F 70% 30.29 in 10.0 mi ESE 8.1 mph - N/A   Clear
9:15 PM 35.6 °F 29.9 °F 26.6 °F 70% 30.29 in 10.0 mi East 6.9 mph - N/A   Clear
9:35 PM 35.6 °F 29.9 °F 26.6 °F 70% 30.29 in 10.0 mi East 6.9 mph - N/A   Clear
9:55 PM 35.6 °F 28.6 °F 26.6 °F 70% 30.28 in 10.0 mi East 9.2 mph - N/A   Clear
10:15 PM 35.6 °F 29.9 °F 26.6 °F 70% 30.28 in 10.0 mi East 6.9 mph - N/A   Clear
10:35 PM 35.6 °F 30.7 °F 26.6 °F 70% 30.28 in 10.0 mi ESE 5.8 mph - N/A   Clear
10:55 PM 35.6 °F 29.9 °F 28.4 °F 75% 30.28 in 10.0 mi ESE 6.9 mph - N/A   Light Drizzle
11:15 PM 35.6 °F 29.9 °F 28.4 °F 75% 30.28 in 10.0 mi East 6.9 mph - N/A   Drizzle